sensor_id;sensor_type;location;lat;lon;timestamp;P1;durP1;ratioP1;P2;durP2;ratioP2
22336;SDS011;14992;50.844;4.418;2023-07-20T00:01:12;7.03;;;2.03;;
22336;SDS011;14992;50.844;4.418;2023-07-20T00:03:42;5.25;;;2.10;;
22336;SDS011;14992;50.844;4.418;2023-07-20T00:06:11;6.63;;;2.60;;
22336;SDS011;14992;50.844;4.418;2023-07-20T00:08:40;4.75;;;2.35;;
22336;SDS011;14992;50.844;4.418;2023-07-20T00:11:09;5.88;;;2.08;;
22336;SDS011;14992;50.844;4.418;2023-07-20T00:13:40;4.72;;;2.10;;
22336;SDS011;14992;50.844;4.418;2023-07-20T00:16:09;5.75;;;2.17;;
22336;SDS011;14992;50.844;4.418;2023-07-20T00:18:38;5.25;;;2.10;;
22336;SDS011;14992;50.844;4.418;2023-07-20T00:21:08;8.57;;;2.67;;
22336;SDS011;14992;50.844;4.418;2023-07-20T00:23:37;7.28;;;2.35;;
22336;SDS011;14992;50.844;4.418;2023-07-20T00:26:06;4.70;;;2.38;;
22336;SDS011;14992;50.844;4.418;2023-07-20T00:28:35;4.82;;;2.42;;
22336;SDS011;14992;50.844;4.418;2023-07-20T00:31:04;6.13;;;2.78;;
22336;SDS011;14992;50.844;4.418;2023-07-20T00:33:33;5.38;;;2.35;;
22336;SDS011;14992;50.844;4.418;2023-07-20T00:36:02;8.07;;;3.67;;
22336;SDS011;14992;50.844;4.418;2023-07-20T00:38:32;8.73;;;3.08;;
22336;SDS011;14992;50.844;4.418;2023-07-20T00:41:01;5.38;;;2.85;;
22336;SDS011;14992;50.844;4.418;2023-07-20T00:43:30;6.13;;;2.47;;
22336;SDS011;14992;50.844;4.418;2023-07-20T00:45:59;4.53;;;2.33;;
22336;SDS011;14992;50.844;4.418;2023-07-20T00:48:30;5.68;;;2.35;;
22336;SDS011;14992;50.844;4.418;2023-07-20T00:50:59;5.03;;;3.35;;
22336;SDS011;14992;50.844;4.418;2023-07-20T00:53:29;4.53;;;1.88;;
22336;SDS011;14992;50.844;4.418;2023-07-20T00:56:02;4.78;;;2.60;;
22336;SDS011;14992;50.844;4.418;2023-07-20T00:58:32;6.82;;;2.70;;
22336;SDS011;14992;50.844;4.418;2023-07-20T01:01:01;5.90;;;2.65;;
22336;SDS011;14992;50.844;4.418;2023-07-20T01:03:30;6.32;;;2.38;;
22336;SDS011;14992;50.844;4.418;2023-07-20T01:06:00;4.97;;;2.30;;
22336;SDS011;14992;50.844;4.418;2023-07-20T01:08:39;4.40;;;2.42;;
22336;SDS011;14992;50.844;4.418;2023-07-20T01:11:20;5.25;;;2.65;;
22336;SDS011;14992;50.844;4.418;2023-07-20T01:13:55;5.10;;;2.50;;
22336;SDS011;14992;50.844;4.418;2023-07-20T01:16:26;5.55;;;2.47;;
22336;SDS011;14992;50.844;4.418;2023-07-20T01:18:55;11.40;;;3.10;;
22336;SDS011;14992;50.844;4.418;2023-07-20T01:21:26;10.57;;;3.40;;
22336;SDS011;14992;50.844;4.418;2023-07-20T01:24:05;6.00;;;2.97;;
22336;SDS011;14992;50.844;4.418;2023-07-20T01:30:19;7.25;;;3.00;;
22336;SDS011;14992;50.844;4.418;2023-07-20T01:33:03;5.90;;;2.38;;
22336;SDS011;14992;50.844;4.418;2023-07-20T01:35:33;6.30;;;2.88;;
22336;SDS011;14992;50.844;4.418;2023-07-20T01:38:04;8.45;;;2.85;;
22336;SDS011;14992;50.844;4.418;2023-07-20T01:40:35;8.55;;;3.67;;
22336;SDS011;14992;50.844;4.418;2023-07-20T01:43:04;10.27;;;3.60;;
22336;SDS011;14992;50.844;4.418;2023-07-20T01:45:33;7.18;;;3.25;;
22336;SDS011;14992;50.844;4.418;2023-07-20T01:48:03;10.02;;;3.30;;
22336;SDS011;14992;50.844;4.418;2023-07-20T01:50:32;7.70;;;4.00;;
22336;SDS011;14992;50.844;4.418;2023-07-20T01:53:01;9.27;;;3.42;;
22336;SDS011;14992;50.844;4.418;2023-07-20T01:55:30;8.68;;;4.13;;
22336;SDS011;14992;50.844;4.418;2023-07-20T01:57:59;8.52;;;3.72;;
22336;SDS011;14992;50.844;4.418;2023-07-20T02:00:29;6.85;;;3.67;;
22336;SDS011;14992;50.844;4.418;2023-07-20T02:02:58;15.68;;;4.40;;
22336;SDS011;14992;50.844;4.418;2023-07-20T02:05:28;8.57;;;3.75;;
22336;SDS011;14992;50.844;4.418;2023-07-20T02:07:57;10.27;;;3.78;;
22336;SDS011;14992;50.844;4.418;2023-07-20T02:10:27;10.30;;;4.40;;
22336;SDS011;14992;50.844;4.418;2023-07-20T02:12:56;11.38;;;4.00;;
22336;SDS011;14992;50.844;4.418;2023-07-20T02:15:25;11.38;;;4.53;;
22336;SDS011;14992;50.844;4.418;2023-07-20T02:17:54;9.55;;;3.80;;
22336;SDS011;14992;50.844;4.418;2023-07-20T02:20:23;9.43;;;4.40;;
22336;SDS011;14992;50.844;4.418;2023-07-20T02:22:54;8.40;;;3.83;;
22336;SDS011;14992;50.844;4.418;2023-07-20T02:25:23;9.82;;;4.03;;
22336;SDS011;14992;50.844;4.418;2023-07-20T02:27:52;10.48;;;4.38;;
22336;SDS011;14992;50.844;4.418;2023-07-20T02:30:21;7.18;;;4.15;;
22336;SDS011;14992;50.844;4.418;2023-07-20T02:32:50;9.00;;;4.10;;
22336;SDS011;14992;50.844;4.418;2023-07-20T02:35:19;10.38;;;4.47;;
22336;SDS011;14992;50.844;4.418;2023-07-20T02:37:48;8.82;;;4.68;;
22336;SDS011;14992;50.844;4.418;2023-07-20T02:40:18;7.65;;;4.47;;
22336;SDS011;14992;50.844;4.418;2023-07-20T02:42:47;12.48;;;5.50;;
22336;SDS011;14992;50.844;4.418;2023-07-20T02:45:16;6.93;;;4.53;;
22336;SDS011;14992;50.844;4.418;2023-07-20T02:47:45;10.68;;;4.97;;
22336;SDS011;14992;50.844;4.418;2023-07-20T02:50:14;9.05;;;4.80;;
22336;SDS011;14992;50.844;4.418;2023-07-20T02:52:44;13.68;;;5.20;;
22336;SDS011;14992;50.844;4.418;2023-07-20T02:55:13;12.13;;;5.55;;
22336;SDS011;14992;50.844;4.418;2023-07-20T02:57:44;12.98;;;5.13;;
22336;SDS011;14992;50.844;4.418;2023-07-20T03:00:13;12.73;;;5.20;;
22336;SDS011;14992;50.844;4.418;2023-07-20T03:02:43;10.88;;;5.30;;
22336;SDS011;14992;50.844;4.418;2023-07-20T03:05:15;11.68;;;5.60;;
22336;SDS011;14992;50.844;4.418;2023-07-20T03:07:44;10.57;;;5.55;;
22336;SDS011;14992;50.844;4.418;2023-07-20T03:10:14;14.32;;;6.53;;
22336;SDS011;14992;50.844;4.418;2023-07-20T03:12:44;10.68;;;5.38;;
22336;SDS011;14992;50.844;4.418;2023-07-20T03:15:13;11.13;;;5.88;;
22336;SDS011;14992;50.844;4.418;2023-07-20T03:17:42;11.90;;;5.47;;
22336;SDS011;14992;50.844;4.418;2023-07-20T03:20:12;11.00;;;5.18;;
22336;SDS011;14992;50.844;4.418;2023-07-20T03:22:41;12.93;;;6.53;;
22336;SDS011;14992;50.844;4.418;2023-07-20T03:25:10;12.23;;;6.63;;
22336;SDS011;14992;50.844;4.418;2023-07-20T03:27:40;9.68;;;5.43;;
22336;SDS011;14992;50.844;4.418;2023-07-20T03:30:11;13.52;;;6.10;;
22336;SDS011;14992;50.844;4.418;2023-07-20T03:32:41;12.05;;;6.22;;
22336;SDS011;14992;50.844;4.418;2023-07-20T03:35:10;14.93;;;6.65;;
22336;SDS011;14992;50.844;4.418;2023-07-20T03:37:42;13.63;;;6.20;;
22336;SDS011;14992;50.844;4.418;2023-07-20T03:40:12;13.82;;;5.75;;
22336;SDS011;14992;50.844;4.418;2023-07-20T03:42:43;11.20;;;7.32;;
22336;SDS011;14992;50.844;4.418;2023-07-20T03:45:14;11.23;;;5.97;;
22336;SDS011;14992;50.844;4.418;2023-07-20T03:47:43;15.10;;;6.50;;
22336;SDS011;14992;50.844;4.418;2023-07-20T03:50:14;10.88;;;6.50;;
22336;SDS011;14992;50.844;4.418;2023-07-20T03:52:43;14.02;;;6.63;;
22336;SDS011;14992;50.844;4.418;2023-07-20T03:55:12;10.80;;;6.45;;
22336;SDS011;14992;50.844;4.418;2023-07-20T03:57:41;12.10;;;6.70;;
22336;SDS011;14992;50.844;4.418;2023-07-20T04:00:11;11.75;;;6.88;;
22336;SDS011;14992;50.844;4.418;2023-07-20T04:02:43;11.93;;;6.57;;
22336;SDS011;14992;50.844;4.418;2023-07-20T04:05:12;13.20;;;6.55;;
22336;SDS011;14992;50.844;4.418;2023-07-20T04:07:41;13.88;;;6.55;;
22336;SDS011;14992;50.844;4.418;2023-07-20T04:10:10;12.68;;;7.03;;
22336;SDS011;14992;50.844;4.418;2023-07-20T04:12:39;12.60;;;6.28;;
22336;SDS011;14992;50.844;4.418;2023-07-20T04:15:09;17.45;;;7.18;;
22336;SDS011;14992;50.844;4.418;2023-07-20T04:17:40;15.00;;;7.50;;
22336;SDS011;14992;50.844;4.418;2023-07-20T04:20:11;10.60;;;6.20;;
22336;SDS011;14992;50.844;4.418;2023-07-20T04:22:40;17.10;;;7.25;;
22336;SDS011;14992;50.844;4.418;2023-07-20T04:25:11;10.90;;;7.38;;
22336;SDS011;14992;50.844;4.418;2023-07-20T04:27:41;12.05;;;7.03;;
22336;SDS011;14992;50.844;4.418;2023-07-20T04:30:10;16.05;;;7.75;;
22336;SDS011;14992;50.844;4.418;2023-07-20T04:32:42;14.55;;;7.32;;
22336;SDS011;14992;50.844;4.418;2023-07-20T04:35:16;11.60;;;7.32;;
22336;SDS011;14992;50.844;4.418;2023-07-20T04:37:48;12.27;;;7.97;;
22336;SDS011;14992;50.844;4.418;2023-07-20T04:40:19;13.95;;;6.97;;
22336;SDS011;14992;50.844;4.418;2023-07-20T04:42:48;15.93;;;7.50;;
22336;SDS011;14992;50.844;4.418;2023-07-20T04:45:17;15.35;;;8.50;;
22336;SDS011;14992;50.844;4.418;2023-07-20T04:47:48;16.80;;;7.90;;
22336;SDS011;14992;50.844;4.418;2023-07-20T04:50:18;16.30;;;8.05;;
22336;SDS011;14992;50.844;4.418;2023-07-20T04:52:47;14.73;;;7.20;;
22336;SDS011;14992;50.844;4.418;2023-07-20T04:55:19;12.20;;;7.60;;
22336;SDS011;14992;50.844;4.418;2023-07-20T04:57:48;16.27;;;8.43;;
22336;SDS011;14992;50.844;4.418;2023-07-20T05:00:17;10.48;;;7.03;;
22336;SDS011;14992;50.844;4.418;2023-07-20T05:02:48;18.27;;;7.50;;
22336;SDS011;14992;50.844;4.418;2023-07-20T05:05:18;19.00;;;12.00;;
22336;SDS011;14992;50.844;4.418;2023-07-20T05:07:47;16.35;;;8.20;;
22336;SDS011;14992;50.844;4.418;2023-07-20T05:10:16;13.32;;;8.02;;
22336;SDS011;14992;50.844;4.418;2023-07-20T05:12:46;14.13;;;7.70;;
22336;SDS011;14992;50.844;4.418;2023-07-20T05:15:15;16.38;;;8.68;;
22336;SDS011;14992;50.844;4.418;2023-07-20T05:17:44;12.23;;;7.35;;
22336;SDS011;14992;50.844;4.418;2023-07-20T05:20:17;13.05;;;7.43;;
22336;SDS011;14992;50.844;4.418;2023-07-20T05:22:47;14.43;;;7.03;;
22336;SDS011;14992;50.844;4.418;2023-07-20T05:25:17;16.48;;;7.00;;
22336;SDS011;14992;50.844;4.418;2023-07-20T05:27:46;11.15;;;6.68;;
22336;SDS011;14992;50.844;4.418;2023-07-20T05:30:15;12.23;;;7.05;;
22336;SDS011;14992;50.844;4.418;2023-07-20T05:32:44;12.50;;;7.30;;
22336;SDS011;14992;50.844;4.418;2023-07-20T05:35:19;11.60;;;6.63;;
22336;SDS011;14992;50.844;4.418;2023-07-20T05:37:49;11.35;;;7.32;;
22336;SDS011;14992;50.844;4.418;2023-07-20T05:40:18;14.02;;;6.50;;
22336;SDS011;14992;50.844;4.418;2023-07-20T05:42:48;9.98;;;5.78;;
22336;SDS011;14992;50.844;4.418;2023-07-20T05:45:19;11.40;;;6.22;;
22336;SDS011;14992;50.844;4.418;2023-07-20T05:47:48;12.70;;;6.30;;
22336;SDS011;14992;50.844;4.418;2023-07-20T05:50:18;11.05;;;6.60;;
22336;SDS011;14992;50.844;4.418;2023-07-20T05:52:47;9.77;;;5.65;;
22336;SDS011;14992;50.844;4.418;2023-07-20T05:55:16;10.15;;;6.50;;
22336;SDS011;14992;50.844;4.418;2023-07-20T05:57:45;10.23;;;5.78;;
22336;SDS011;14992;50.844;4.418;2023-07-20T06:00:15;9.48;;;6.28;;
22336;SDS011;14992;50.844;4.418;2023-07-20T06:02:53;10.23;;;6.18;;
22336;SDS011;14992;50.844;4.418;2023-07-20T06:05:24;10.13;;;6.50;;
22336;SDS011;14992;50.844;4.418;2023-07-20T06:07:55;9.85;;;5.88;;
22336;SDS011;14992;50.844;4.418;2023-07-20T06:10:25;8.35;;;5.35;;
22336;SDS011;14992;50.844;4.418;2023-07-20T06:12:54;11.85;;;6.53;;
22336;SDS011;14992;50.844;4.418;2023-07-20T06:15:27;7.78;;;5.05;;
22336;SDS011;14992;50.844;4.418;2023-07-20T06:17:57;10.43;;;5.50;;
22336;SDS011;14992;50.844;4.418;2023-07-20T06:20:27;6.78;;;4.70;;
22336;SDS011;14992;50.844;4.418;2023-07-20T06:22:57;10.13;;;5.40;;
22336;SDS011;14992;50.844;4.418;2023-07-20T06:25:26;9.02;;;5.82;;
22336;SDS011;14992;50.844;4.418;2023-07-20T06:27:55;9.68;;;4.88;;
22336;SDS011;14992;50.844;4.418;2023-07-20T06:30:27;7.88;;;4.55;;
22336;SDS011;14992;50.844;4.418;2023-07-20T06:32:56;9.82;;;4.70;;
22336;SDS011;14992;50.844;4.418;2023-07-20T06:35:25;8.35;;;5.50;;
22336;SDS011;14992;50.844;4.418;2023-07-20T06:37:58;8.52;;;5.30;;
22336;SDS011;14992;50.844;4.418;2023-07-20T06:40:47;7.90;;;5.03;;
22336;SDS011;14992;50.844;4.418;2023-07-20T06:43:16;7.65;;;3.97;;
22336;SDS011;14992;50.844;4.418;2023-07-20T06:45:50;5.28;;;4.20;;
22336;SDS011;14992;50.844;4.418;2023-07-20T06:48:21;5.68;;;3.63;;
22336;SDS011;14992;50.844;4.418;2023-07-20T06:50:51;4.10;;;3.15;;
22336;SDS011;14992;50.844;4.418;2023-07-20T06:53:20;4.20;;;2.70;;
22336;SDS011;14992;50.844;4.418;2023-07-20T06:55:49;5.45;;;3.40;;
22336;SDS011;14992;50.844;4.418;2023-07-20T06:58:18;8.40;;;3.67;;
22336;SDS011;14992;50.844;4.418;2023-07-20T07:00:48;4.03;;;2.63;;
22336;SDS011;14992;50.844;4.418;2023-07-20T07:03:20;4.53;;;2.60;;
22336;SDS011;14992;50.844;4.418;2023-07-20T07:05:56;4.30;;;2.33;;
22336;SDS011;14992;50.844;4.418;2023-07-20T07:08:25;2.88;;;1.65;;
22336;SDS011;14992;50.844;4.418;2023-07-20T07:10:55;3.20;;;1.90;;
22336;SDS011;14992;50.844;4.418;2023-07-20T07:13:32;3.28;;;2.03;;
22336;SDS011;14992;50.844;4.418;2023-07-20T07:16:02;2.03;;;1.65;;
22336;SDS011;14992;50.844;4.418;2023-07-20T07:18:35;2.22;;;1.45;;
22336;SDS011;14992;50.844;4.418;2023-07-20T07:21:05;2.55;;;1.80;;
22336;SDS011;14992;50.844;4.418;2023-07-20T07:23:34;3.47;;;2.22;;
22336;SDS011;14992;50.844;4.418;2023-07-20T07:26:03;2.00;;;1.30;;
22336;SDS011;14992;50.844;4.418;2023-07-20T07:28:32;1.08;;;0.70;;
22336;SDS011;14992;50.844;4.418;2023-07-20T07:31:01;1.27;;;1.02;;
22336;SDS011;14992;50.844;4.418;2023-07-20T07:33:33;2.97;;;1.60;;
22336;SDS011;14992;50.844;4.418;2023-07-20T07:36:02;1.30;;;0.93;;
22336;SDS011;14992;50.844;4.418;2023-07-20T07:38:33;1.05;;;0.73;;
22336;SDS011;14992;50.844;4.418;2023-07-20T07:41:21;1.25;;;0.40;;
22336;SDS011;14992;50.844;4.418;2023-07-20T07:43:50;1.35;;;0.70;;
22336;SDS011;14992;50.844;4.418;2023-07-20T07:46:19;1.85;;;0.55;;
22336;SDS011;14992;50.844;4.418;2023-07-20T07:48:49;9.63;;;6.93;;
22336;SDS011;14992;50.844;4.418;2023-07-20T07:51:17;2.80;;;1.63;;
22336;SDS011;14992;50.844;4.418;2023-07-20T07:53:48;1.67;;;0.50;;
22336;SDS011;14992;50.844;4.418;2023-07-20T07:56:17;2.10;;;0.68;;
22336;SDS011;14992;50.844;4.418;2023-07-20T07:58:50;1.33;;;0.98;;
22336;SDS011;14992;50.844;4.418;2023-07-20T08:01:19;1.55;;;0.57;;
22336;SDS011;14992;50.844;4.418;2023-07-20T08:03:49;1.20;;;0.60;;
22336;SDS011;14992;50.844;4.418;2023-07-20T08:06:19;1.13;;;0.47;;
22336;SDS011;14992;50.844;4.418;2023-07-20T08:08:49;2.95;;;1.35;;
22336;SDS011;14992;50.844;4.418;2023-07-20T08:11:18;0.77;;;0.68;;
22336;SDS011;14992;50.844;4.418;2023-07-20T08:13:47;2.17;;;0.80;;
22336;SDS011;14992;50.844;4.418;2023-07-20T08:16:16;2.10;;;0.85;;
22336;SDS011;14992;50.844;4.418;2023-07-20T08:18:45;0.80;;;0.60;;
22336;SDS011;14992;50.844;4.418;2023-07-20T08:21:14;0.90;;;0.60;;
22336;SDS011;14992;50.844;4.418;2023-07-20T08:23:43;9.18;;;8.27;;
22336;SDS011;14992;50.844;4.418;2023-07-20T08:26:13;8.63;;;5.38;;
22336;SDS011;14992;50.844;4.418;2023-07-20T08:28:43;3.00;;;1.00;;
22336;SDS011;14992;50.844;4.418;2023-07-20T08:31:15;2.03;;;0.60;;
22336;SDS011;14992;50.844;4.418;2023-07-20T08:33:44;3.20;;;0.90;;
22336;SDS011;14992;50.844;4.418;2023-07-20T08:36:13;2.40;;;1.00;;
22336;SDS011;14992;50.844;4.418;2023-07-20T08:38:42;1.58;;;0.80;;
22336;SDS011;14992;50.844;4.418;2023-07-20T08:41:11;3.60;;;1.73;;
22336;SDS011;14992;50.844;4.418;2023-07-20T08:43:42;2.17;;;1.02;;
22336;SDS011;14992;50.844;4.418;2023-07-20T08:46:12;1.90;;;1.50;;
22336;SDS011;14992;50.844;4.418;2023-07-20T08:48:41;2.97;;;1.10;;
22336;SDS011;14992;50.844;4.418;2023-07-20T08:51:11;2.15;;;1.05;;
22336;SDS011;14992;50.844;4.418;2023-07-20T08:53:42;2.22;;;1.10;;
22336;SDS011;14992;50.844;4.418;2023-07-20T08:56:15;1.77;;;0.90;;
22336;SDS011;14992;50.844;4.418;2023-07-20T08:58:46;1.60;;;0.88;;
22336;SDS011;14992;50.844;4.418;2023-07-20T09:01:15;2.08;;;0.90;;
22336;SDS011;14992;50.844;4.418;2023-07-20T09:03:46;2.78;;;1.02;;
22336;SDS011;14992;50.844;4.418;2023-07-20T09:06:15;1.73;;;0.95;;
22336;SDS011;14992;50.844;4.418;2023-07-20T09:08:46;1.67;;;1.00;;
22336;SDS011;14992;50.844;4.418;2023-07-20T09:11:16;2.13;;;1.42;;
22336;SDS011;14992;50.844;4.418;2023-07-20T09:13:45;1.92;;;1.08;;
22336;SDS011;14992;50.844;4.418;2023-07-20T09:16:17;2.13;;;1.13;;
22336;SDS011;14992;50.844;4.418;2023-07-20T09:18:46;2.40;;;0.98;;
22336;SDS011;14992;50.844;4.418;2023-07-20T09:21:15;1.42;;;1.00;;
22336;SDS011;14992;50.844;4.418;2023-07-20T09:23:45;2.35;;;1.08;;
22336;SDS011;14992;50.844;4.418;2023-07-20T09:26:17;1.83;;;0.90;;
22336;SDS011;14992;50.844;4.418;2023-07-20T09:28:47;2.28;;;0.93;;
22336;SDS011;14992;50.844;4.418;2023-07-20T09:31:18;3.00;;;1.10;;
22336;SDS011;14992;50.844;4.418;2023-07-20T09:33:48;2.13;;;1.20;;
22336;SDS011;14992;50.844;4.418;2023-07-20T09:36:22;2.42;;;1.40;;
22336;SDS011;14992;50.844;4.418;2023-07-20T09:39:11;3.97;;;2.15;;
22336;SDS011;14992;50.844;4.418;2023-07-20T09:41:56;4.03;;;2.30;;
22336;SDS011;14992;50.844;4.418;2023-07-20T09:44:31;2.67;;;1.67;;
22336;SDS011;14992;50.844;4.418;2023-07-20T09:47:03;2.40;;;1.50;;
22336;SDS011;14992;50.844;4.418;2023-07-20T09:49:34;3.42;;;1.48;;
22336;SDS011;14992;50.844;4.418;2023-07-20T09:52:11;2.83;;;1.52;;
22336;SDS011;14992;50.844;4.418;2023-07-20T09:55:01;1.33;;;1.13;;
22336;SDS011;14992;50.844;4.418;2023-07-20T09:57:33;1.65;;;1.55;;
22336;SDS011;14992;50.844;4.418;2023-07-20T10:00:04;1.63;;;1.33;;
22336;SDS011;14992;50.844;4.418;2023-07-20T10:02:44;1.60;;;1.10;;
22336;SDS011;14992;50.844;4.418;2023-07-20T10:05:14;2.00;;;1.10;;
22336;SDS011;14992;50.844;4.418;2023-07-20T10:07:46;2.20;;;1.00;;
22336;SDS011;14992;50.844;4.418;2023-07-20T10:12:48;1.60;;;1.17;;
22336;SDS011;14992;50.844;4.418;2023-07-20T10:15:20;2.47;;;0.80;;
22336;SDS011;14992;50.844;4.418;2023-07-20T10:18:03;1.20;;;0.93;;
22336;SDS011;14992;50.844;4.418;2023-07-20T10:20:36;3.05;;;1.45;;
22336;SDS011;14992;50.844;4.418;2023-07-20T10:23:28;2.92;;;1.60;;
22336;SDS011;14992;50.844;4.418;2023-07-20T10:25:58;4.00;;;1.23;;
22336;SDS011;14992;50.844;4.418;2023-07-20T10:28:30;1.25;;;1.10;;
22336;SDS011;14992;50.844;4.418;2023-07-20T10:31:00;1.77;;;1.15;;
22336;SDS011;14992;50.844;4.418;2023-07-20T10:33:28;2.50;;;1.08;;
22336;SDS011;14992;50.844;4.418;2023-07-20T10:36:02;1.13;;;1.02;;
22336;SDS011;14992;50.844;4.418;2023-07-20T10:38:39;1.55;;;1.05;;
22336;SDS011;14992;50.844;4.418;2023-07-20T10:41:18;1.65;;;1.33;;
22336;SDS011;14992;50.844;4.418;2023-07-20T10:43:49;1.40;;;0.98;;
22336;SDS011;14992;50.844;4.418;2023-07-20T10:49:09;3.58;;;1.40;;
22336;SDS011;14992;50.844;4.418;2023-07-20T10:51:39;1.40;;;1.20;;
22336;SDS011;14992;50.844;4.418;2023-07-20T10:54:11;1.48;;;1.20;;
22336;SDS011;14992;50.844;4.418;2023-07-20T10:59:51;2.10;;;1.55;;
22336;SDS011;14992;50.844;4.418;2023-07-20T11:02:43;2.83;;;1.38;;
22336;SDS011;14992;50.844;4.418;2023-07-20T11:05:32;1.60;;;1.50;;
22336;SDS011;14992;50.844;4.418;2023-07-20T11:08:03;3.03;;;1.67;;
22336;SDS011;14992;50.844;4.418;2023-07-20T11:10:33;2.22;;;1.60;;
22336;SDS011;14992;50.844;4.418;2023-07-20T11:13:18;2.60;;;1.50;;
22336;SDS011;14992;50.844;4.418;2023-07-20T11:16:04;2.20;;;1.50;;
22336;SDS011;14992;50.844;4.418;2023-07-20T11:18:33;1.90;;;1.35;;
22336;SDS011;14992;50.844;4.418;2023-07-20T11:21:08;1.52;;;1.35;;
22336;SDS011;14992;50.844;4.418;2023-07-20T11:23:38;2.10;;;1.48;;
22336;SDS011;14992;50.844;4.418;2023-07-20T11:26:07;1.90;;;1.13;;
22336;SDS011;14992;50.844;4.418;2023-07-20T11:28:37;2.55;;;1.50;;
22336;SDS011;14992;50.844;4.418;2023-07-20T11:31:07;3.30;;;1.20;;
22336;SDS011;14992;50.844;4.418;2023-07-20T11:33:36;2.40;;;2.20;;
22336;SDS011;14992;50.844;4.418;2023-07-20T11:36:06;2.30;;;1.38;;
22336;SDS011;14992;50.844;4.418;2023-07-20T11:38:41;1.33;;;1.20;;
22336;SDS011;14992;50.844;4.418;2023-07-20T11:41:11;3.63;;;1.25;;
22336;SDS011;14992;50.844;4.418;2023-07-20T11:43:41;1.70;;;1.25;;
22336;SDS011;14992;50.844;4.418;2023-07-20T11:46:11;2.42;;;1.50;;
22336;SDS011;14992;50.844;4.418;2023-07-20T11:48:40;2.42;;;1.63;;
22336;SDS011;14992;50.844;4.418;2023-07-20T11:51:13;2.97;;;1.40;;
22336;SDS011;14992;50.844;4.418;2023-07-20T11:53:43;3.60;;;1.25;;
22336;SDS011;14992;50.844;4.418;2023-07-20T11:56:13;2.13;;;1.80;;
22336;SDS011;14992;50.844;4.418;2023-07-20T11:58:42;1.65;;;1.55;;
22336;SDS011;14992;50.844;4.418;2023-07-20T12:01:13;3.33;;;1.90;;
22336;SDS011;14992;50.844;4.418;2023-07-20T12:03:43;2.20;;;2.10;;
22336;SDS011;14992;50.844;4.418;2023-07-20T12:06:13;2.05;;;1.63;;
22336;SDS011;14992;50.844;4.418;2023-07-20T12:08:42;2.30;;;2.10;;
22336;SDS011;14992;50.844;4.418;2023-07-20T12:11:12;1.90;;;1.80;;
22336;SDS011;14992;50.844;4.418;2023-07-20T12:13:45;2.75;;;2.20;;
22336;SDS011;14992;50.844;4.418;2023-07-20T12:16:19;3.05;;;2.65;;
22336;SDS011;14992;50.844;4.418;2023-07-20T12:18:54;4.93;;;2.90;;
22336;SDS011;14992;50.844;4.418;2023-07-20T12:21:29;3.75;;;3.30;;
22336;SDS011;14992;50.844;4.418;2023-07-20T12:24:05;4.00;;;3.63;;
22336;SDS011;14992;50.844;4.418;2023-07-20T12:26:36;4.15;;;3.08;;
22336;SDS011;14992;50.844;4.418;2023-07-20T12:29:05;2.90;;;2.58;;
22336;SDS011;14992;50.844;4.418;2023-07-20T12:31:36;4.25;;;2.90;;
22336;SDS011;14992;50.844;4.418;2023-07-20T12:34:05;3.35;;;3.05;;
22336;SDS011;14992;50.844;4.418;2023-07-20T12:36:41;5.13;;;2.70;;
22336;SDS011;14992;50.844;4.418;2023-07-20T12:39:11;3.13;;;2.92;;
22336;SDS011;14992;50.844;4.418;2023-07-20T12:41:41;3.08;;;2.80;;
22336;SDS011;14992;50.844;4.418;2023-07-20T12:44:11;3.10;;;2.90;;
22336;SDS011;14992;50.844;4.418;2023-07-20T12:46:46;3.47;;;2.83;;
22336;SDS011;14992;50.844;4.418;2023-07-20T12:49:24;3.47;;;3.15;;
22336;SDS011;14992;50.844;4.418;2023-07-20T12:51:53;3.97;;;3.60;;
22336;SDS011;14992;50.844;4.418;2023-07-20T12:54:22;3.03;;;2.72;;
22336;SDS011;14992;50.844;4.418;2023-07-20T12:56:51;3.65;;;2.67;;
22336;SDS011;14992;50.844;4.418;2023-07-20T12:59:23;3.30;;;2.60;;
22336;SDS011;14992;50.844;4.418;2023-07-20T13:01:53;3.38;;;3.03;;
22336;SDS011;14992;50.844;4.418;2023-07-20T13:04:22;3.80;;;2.83;;
22336;SDS011;14992;50.844;4.418;2023-07-20T13:06:51;4.32;;;2.63;;
22336;SDS011;14992;50.844;4.418;2023-07-20T13:09:20;5.55;;;3.00;;
22336;SDS011;14992;50.844;4.418;2023-07-20T13:11:49;5.22;;;4.00;;
22336;SDS011;14992;50.844;4.418;2023-07-20T13:14:19;3.97;;;2.50;;
22336;SDS011;14992;50.844;4.418;2023-07-20T13:16:48;3.72;;;2.85;;
22336;SDS011;14992;50.844;4.418;2023-07-20T13:19:18;3.60;;;2.75;;
22336;SDS011;14992;50.844;4.418;2023-07-20T13:21:47;2.72;;;2.53;;
22336;SDS011;14992;50.844;4.418;2023-07-20T13:24:16;2.90;;;2.67;;
22336;SDS011;14992;50.844;4.418;2023-07-20T13:26:45;4.32;;;2.47;;
22336;SDS011;14992;50.844;4.418;2023-07-20T13:29:14;3.28;;;2.97;;
22336;SDS011;14992;50.844;4.418;2023-07-20T13:31:44;2.90;;;2.70;;
22336;SDS011;14992;50.844;4.418;2023-07-20T13:34:15;4.47;;;3.17;;
22336;SDS011;14992;50.844;4.418;2023-07-20T13:36:47;8.48;;;2.85;;
22336;SDS011;14992;50.844;4.418;2023-07-20T13:39:16;3.50;;;3.10;;
22336;SDS011;14992;50.844;4.418;2023-07-20T13:41:45;3.38;;;3.08;;
22336;SDS011;14992;50.844;4.418;2023-07-20T13:44:14;3.60;;;2.63;;
22336;SDS011;14992;50.844;4.418;2023-07-20T13:46:48;2.75;;;2.50;;
22336;SDS011;14992;50.844;4.418;2023-07-20T13:49:17;3.15;;;2.55;;
22336;SDS011;14992;50.844;4.418;2023-07-20T13:51:50;4.57;;;2.42;;
22336;SDS011;14992;50.844;4.418;2023-07-20T13:54:22;2.63;;;2.42;;
22336;SDS011;14992;50.844;4.418;2023-07-20T13:56:53;3.03;;;2.30;;
22336;SDS011;14992;50.844;4.418;2023-07-20T13:59:24;3.17;;;2.20;;
22336;SDS011;14992;50.844;4.418;2023-07-20T14:01:54;2.10;;;1.92;;
22336;SDS011;14992;50.844;4.418;2023-07-20T14:04:25;3.00;;;2.08;;
22336;SDS011;14992;50.844;4.418;2023-07-20T14:06:57;2.22;;;1.70;;
22336;SDS011;14992;50.844;4.418;2023-07-20T14:09:26;1.85;;;1.67;;
22336;SDS011;14992;50.844;4.418;2023-07-20T14:11:55;4.90;;;2.10;;
22336;SDS011;14992;50.844;4.418;2023-07-20T14:14:27;3.10;;;2.13;;
22336;SDS011;14992;50.844;4.418;2023-07-20T14:16:56;1.90;;;1.80;;
22336;SDS011;14992;50.844;4.418;2023-07-20T14:19:24;2.05;;;1.85;;
22336;SDS011;14992;50.844;4.418;2023-07-20T14:21:54;2.50;;;1.63;;
22336;SDS011;14992;50.844;4.418;2023-07-20T14:24:30;3.63;;;1.80;;
22336;SDS011;14992;50.844;4.418;2023-07-20T14:26:58;4.38;;;2.00;;
22336;SDS011;14992;50.844;4.418;2023-07-20T14:29:28;2.38;;;1.73;;
22336;SDS011;14992;50.844;4.418;2023-07-20T14:31:58;4.47;;;2.35;;
22336;SDS011;14992;50.844;4.418;2023-07-20T14:34:28;1.88;;;1.60;;
22336;SDS011;14992;50.844;4.418;2023-07-20T14:36:58;1.92;;;1.33;;
22336;SDS011;14992;50.844;4.418;2023-07-20T14:39:27;2.28;;;1.67;;
22336;SDS011;14992;50.844;4.418;2023-07-20T14:41:58;1.98;;;1.65;;
22336;SDS011;14992;50.844;4.418;2023-07-20T14:44:27;1.75;;;1.42;;
22336;SDS011;14992;50.844;4.418;2023-07-20T14:46:56;2.03;;;1.83;;
22336;SDS011;14992;50.844;4.418;2023-07-20T14:49:40;2.17;;;1.70;;
22336;SDS011;14992;50.844;4.418;2023-07-20T14:52:09;2.50;;;1.90;;
22336;SDS011;14992;50.844;4.418;2023-07-20T14:54:44;1.48;;;1.38;;
22336;SDS011;14992;50.844;4.418;2023-07-20T14:57:13;2.22;;;1.52;;
22336;SDS011;14992;50.844;4.418;2023-07-20T14:59:42;2.92;;;1.77;;
22336;SDS011;14992;50.844;4.418;2023-07-20T15:02:12;2.83;;;1.67;;
22336;SDS011;14992;50.844;4.418;2023-07-20T15:04:45;1.63;;;1.52;;
22336;SDS011;14992;50.844;4.418;2023-07-20T15:07:16;2.55;;;1.80;;
22336;SDS011;14992;50.844;4.418;2023-07-20T15:09:48;2.35;;;1.52;;
22336;SDS011;14992;50.844;4.418;2023-07-20T15:12:17;2.25;;;1.85;;
22336;SDS011;14992;50.844;4.418;2023-07-20T15:14:49;2.80;;;1.70;;
22336;SDS011;14992;50.844;4.418;2023-07-20T15:17:31;2.58;;;1.73;;
22336;SDS011;14992;50.844;4.418;2023-07-20T15:20:01;1.83;;;1.73;;